createdAt,value
2018-09-10T00:01:43.986Z,99.90
2018-09-10T00:04:11.684Z,99.90
2018-09-10T00:14:02.944Z,99.90
2018-09-10T00:16:30.634Z,99.90
2018-09-10T00:18:58.288Z,99.90
2018-09-10T00:23:53.524Z,99.90
2018-09-10T00:26:21.245Z,99.90
2018-09-10T00:28:49.000Z,99.90
2018-09-10T00:31:16.656Z,99.90
2018-09-10T00:33:44.275Z,99.90
2018-09-10T00:36:11.953Z,99.90
2018-09-10T00:41:07.214Z,99.90
2018-09-10T00:43:34.895Z,99.90
2018-09-10T00:48:56.512Z,99.90
2018-09-10T00:51:24.184Z,99.90
2018-09-10T00:53:51.799Z,99.90
2018-09-10T00:56:19.547Z,99.90
2018-09-10T00:58:47.215Z,99.90
2018-09-10T01:03:42.476Z,99.90
2018-09-10T01:08:37.704Z,99.90
2018-09-10T01:11:05.388Z,99.90
2018-09-10T01:13:33.062Z,99.90
2018-09-10T01:18:28.254Z,99.90
2018-09-10T01:20:55.971Z,99.90
2018-09-10T01:23:23.661Z,99.90
2018-09-10T01:25:51.314Z,99.90
2018-09-10T01:28:18.992Z,99.90
2018-09-10T01:33:19.734Z,99.90
2018-09-10T01:38:14.989Z,99.90
2018-09-10T01:40:42.699Z,99.90
2018-09-10T01:43:10.350Z,99.90
2018-09-10T01:45:37.996Z,99.90
2018-09-10T01:48:05.722Z,99.90
2018-09-10T01:50:33.431Z,99.90
2018-09-10T01:53:01.092Z,99.90
2018-09-10T01:55:28.763Z,99.90
2018-09-10T01:57:56.480Z,99.90
2018-09-10T02:00:24.169Z,99.90
2018-09-10T02:02:51.795Z,99.90
2018-09-10T02:05:19.506Z,99.90
2018-09-10T02:07:47.185Z,99.90
2018-09-10T02:10:14.835Z,99.90
2018-09-10T02:12:42.467Z,99.90
2018-09-10T02:15:10.142Z,99.90
2018-09-10T02:17:37.862Z,99.90
2018-09-10T02:20:05.632Z,99.90
2018-09-10T02:22:33.379Z,99.90
2018-09-10T02:25:01.030Z,99.90
2018-09-10T02:27:28.725Z,99.90
2018-09-10T02:29:56.364Z,99.90
2018-09-10T02:32:24.009Z,99.90
2018-09-10T02:34:51.709Z,99.90
2018-09-10T02:37:19.381Z,99.90
2018-09-10T02:42:14.610Z,99.90
2018-09-10T02:44:51.669Z,99.90
2018-09-10T02:49:46.893Z,99.90
2018-09-10T02:52:14.556Z,99.90
2018-09-10T02:54:43.262Z,99.90
2018-09-10T02:57:10.898Z,99.90
2018-09-10T02:59:38.575Z,99.90
2018-09-10T03:04:33.962Z,99.90
2018-09-10T03:07:01.645Z,99.90
2018-09-10T03:09:29.350Z,99.90
2018-09-10T03:11:57.062Z,99.90
2018-09-10T03:14:24.715Z,99.90
2018-09-10T03:16:52.401Z,99.90
2018-09-10T03:24:15.347Z,99.90
2018-09-10T03:26:42.957Z,99.90
2018-09-10T03:29:10.611Z,99.90
2018-09-10T03:31:38.285Z,99.90
2018-09-10T03:34:06.110Z,99.90
2018-09-10T03:36:33.837Z,99.90
2018-09-10T03:39:01.489Z,99.90
2018-09-10T03:41:29.159Z,99.90
2018-09-10T03:48:51.981Z,99.90
2018-09-10T03:51:19.646Z,99.90
2018-09-10T03:53:47.373Z,99.90
2018-09-10T03:56:15.043Z,99.90
2018-09-10T03:58:42.755Z,99.90
2018-09-10T04:01:10.497Z,99.90
2018-09-10T04:06:05.802Z,99.90
2018-09-10T04:11:01.070Z,99.90
2018-09-10T04:13:28.767Z,99.90
2018-09-10T04:15:56.426Z,99.90
2018-09-10T04:18:24.701Z,99.90
2018-09-10T04:20:52.529Z,99.90
2018-09-10T04:25:47.800Z,99.90
2018-09-10T04:28:15.572Z,99.90
2018-09-10T04:30:43.230Z,99.90
2018-09-10T04:33:10.887Z,99.90
2018-09-10T04:35:38.561Z,99.90
2018-09-10T04:38:06.275Z,99.90
2018-09-10T04:40:33.991Z,99.90
2018-09-10T04:43:01.694Z,99.90
2018-09-10T04:45:29.397Z,99.90
2018-09-10T04:50:24.720Z,99.90
2018-09-10T04:52:52.457Z,99.90
2018-09-10T04:55:20.272Z,99.90
2018-09-10T05:00:15.573Z,99.90
2018-09-10T05:02:43.227Z,99.90
2018-09-10T05:05:10.964Z,99.90
2018-09-10T05:07:38.631Z,99.90
2018-09-10T05:10:06.508Z,99.90
2018-09-10T05:12:34.163Z,99.90
2018-09-10T05:15:01.857Z,99.90
2018-09-10T05:17:29.591Z,99.90
2018-09-10T05:19:57.261Z,99.90
2018-09-10T05:22:24.971Z,99.90
2018-09-10T05:27:20.217Z,99.90
2018-09-10T05:29:47.867Z,99.90
2018-09-10T05:34:43.132Z,99.90
2018-09-10T05:37:10.822Z,99.90
2018-09-10T05:39:38.449Z,99.90
2018-09-10T05:42:06.155Z,99.90
2018-09-10T05:44:33.806Z,99.90
2018-09-10T05:47:01.527Z,99.90
2018-09-10T05:49:29.191Z,99.90
2018-09-10T05:51:56.888Z,99.90
2018-09-10T05:54:24.546Z,99.90
2018-09-10T05:56:52.244Z,99.90
2018-09-10T05:59:19.921Z,99.90
2018-09-10T06:04:15.116Z,99.90
2018-09-10T06:09:10.405Z,99.90
2018-09-10T06:11:38.067Z,99.90
2018-09-10T06:19:00.948Z,99.90
2018-09-10T06:21:28.621Z,99.90
2018-09-10T06:23:56.996Z,99.90
2018-09-10T06:26:24.693Z,99.90
2018-09-10T06:28:52.433Z,99.90
2018-09-10T06:31:20.088Z,99.90
2018-09-10T06:33:47.753Z,99.90
2018-09-10T06:36:15.458Z,99.90
2018-09-10T06:38:43.117Z,99.90
2018-09-10T06:43:38.379Z,99.90
2018-09-10T06:46:06.400Z,99.90
2018-09-10T06:48:34.782Z,99.90
2018-09-10T06:51:03.663Z,99.90
2018-09-10T06:53:31.357Z,99.90
2018-09-10T06:55:59.137Z,99.90
2018-09-10T06:58:26.792Z,99.90
2018-09-10T07:00:54.469Z,99.90
2018-09-10T07:03:22.176Z,99.90
2018-09-10T07:05:49.884Z,99.90
2018-09-10T07:08:17.528Z,99.90
2018-09-10T07:10:45.183Z,99.90
2018-09-10T07:13:13.000Z,99.90
2018-09-10T07:18:08.233Z,99.90
2018-09-10T07:20:35.961Z,99.90
2018-09-10T07:23:03.617Z,99.90
2018-09-10T07:27:58.832Z,99.90
2018-09-10T07:30:26.548Z,99.90
2018-09-10T07:32:54.189Z,99.90
2018-09-10T07:35:21.927Z,99.90
2018-09-10T07:37:49.612Z,99.90
2018-09-10T07:40:17.300Z,99.90
2018-09-10T07:42:44.980Z,99.90
2018-09-10T07:45:13.437Z,99.90
2018-09-10T07:47:41.132Z,99.90
2018-09-10T07:50:08.815Z,99.90
2018-09-10T07:52:36.604Z,99.90
2018-09-10T07:55:04.408Z,99.90
2018-09-10T07:57:32.227Z,99.90
2018-09-10T08:00:00.134Z,99.90
2018-09-10T08:02:27.913Z,99.90
2018-09-10T08:07:23.123Z,99.90
2018-09-10T08:14:45.892Z,99.90
2018-09-10T08:17:13.527Z,99.90
2018-09-10T08:19:41.178Z,99.90
2018-09-10T08:22:08.848Z,99.90
2018-09-10T08:24:36.599Z,99.90
2018-09-10T08:27:04.446Z,99.90
2018-09-10T08:29:32.237Z,99.90
2018-09-10T08:31:59.914Z,99.90
2018-09-10T08:34:27.619Z,97.10
2018-09-10T08:36:55.288Z,93.10
2018-09-10T08:39:22.983Z,84.00
2018-09-10T08:41:50.672Z,77.00
2018-09-10T08:44:18.419Z,75.30
2018-09-10T08:46:46.079Z,58.30
2018-09-10T08:49:13.788Z,57.10
2018-09-10T08:51:41.457Z,56.40
2018-09-10T08:54:09.167Z,56.20
2018-09-10T08:56:36.883Z,54.60
2018-09-10T08:59:04.539Z,54.60
2018-09-10T09:01:32.328Z,50.80
2018-09-10T09:04:00.037Z,51.70
2018-09-10T09:06:27.854Z,52.40
2018-09-10T09:08:55.534Z,50.20
2018-09-10T09:13:50.934Z,52.50
2018-09-10T09:16:18.624Z,56.10
2018-09-10T09:18:46.307Z,55.40
2018-09-10T09:21:14.026Z,52.90
2018-09-10T09:23:42.622Z,51.00
2018-09-10T09:26:10.339Z,49.40
2018-09-10T09:28:38.014Z,50.20
2018-09-10T09:31:05.703Z,51.40
2018-09-10T09:33:33.335Z,49.80
2018-09-10T09:38:39.857Z,48.80
2018-09-10T09:46:17.304Z,45.20
2018-09-10T09:48:46.320Z,46.40
2018-09-10T09:51:16.069Z,46.60
2018-09-10T09:53:45.223Z,45.80
2018-09-10T09:56:12.999Z,45.10
2018-09-10T09:58:40.743Z,44.10
2018-09-10T10:01:14.048Z,42.90
2018-09-10T10:03:47.327Z,40.70
2018-09-10T10:06:15.097Z,44.90
2018-09-10T10:08:42.752Z,39.80
2018-09-10T10:11:10.445Z,39.40
2018-09-10T10:13:38.166Z,36.50
2018-09-10T10:18:33.467Z,36.60
2018-09-10T10:21:01.152Z,35.20
2018-09-10T10:23:28.867Z,33.80
2018-09-10T10:25:56.524Z,37.20
2018-09-10T10:28:24.251Z,33.40
2018-09-10T10:30:51.918Z,33.50
2018-09-10T10:35:47.218Z,33.70
2018-09-10T10:38:14.953Z,35.70
2018-09-10T10:40:42.605Z,32.50
2018-09-10T10:43:10.609Z,32.20
2018-09-10T10:45:38.392Z,34.70
2018-09-10T10:48:06.169Z,35.90
2018-09-10T10:50:33.917Z,34.50
2018-09-10T10:53:01.620Z,35.90
2018-09-10T10:55:29.298Z,36.10
2018-09-10T10:57:56.959Z,37.00
2018-09-10T11:00:24.679Z,35.40
2018-09-10T11:02:52.371Z,36.30
2018-09-10T11:05:20.148Z,36.00
2018-09-10T11:07:47.789Z,36.10
2018-09-10T11:10:15.508Z,35.90
2018-09-10T11:12:43.193Z,38.10
2018-09-10T11:15:10.880Z,35.70
2018-09-10T11:20:06.399Z,33.40
2018-09-10T11:25:01.645Z,32.70
2018-09-10T11:27:29.315Z,31.70
2018-09-10T11:29:57.012Z,32.40
2018-09-10T11:32:24.764Z,33.20
2018-09-10T11:34:52.460Z,31.40
2018-09-10T11:42:15.359Z,30.40
2018-09-10T11:44:43.046Z,30.30
2018-09-10T11:47:10.781Z,32.60
2018-09-10T11:49:38.505Z,33.20
2018-09-10T11:54:33.758Z,33.20
2018-09-10T11:57:01.518Z,34.20
2018-09-10T11:59:29.194Z,35.50
2018-09-10T12:04:24.643Z,39.70
2018-09-10T12:06:52.390Z,40.50
2018-09-10T12:09:20.069Z,36.60
2018-09-10T12:14:15.272Z,35.80
2018-09-10T12:16:42.969Z,36.10
2018-09-10T12:19:10.722Z,34.70
2018-09-10T12:21:38.517Z,36.00
2018-09-10T12:24:06.184Z,36.20
2018-09-10T12:26:33.953Z,33.50
2018-09-10T12:29:01.623Z,32.70
2018-09-10T12:31:29.287Z,33.90
2018-09-10T12:33:56.969Z,35.70
2018-09-10T12:36:24.652Z,39.10
2018-09-10T12:38:52.350Z,34.20
2018-09-10T12:41:20.117Z,34.30
2018-09-10T12:46:15.331Z,36.50
2018-09-10T12:48:43.058Z,36.50
2018-09-10T12:51:10.776Z,35.60
2018-09-10T12:53:38.508Z,35.50
2018-09-10T12:56:06.582Z,35.80
2018-09-10T12:58:34.247Z,40.20
2018-09-10T13:01:01.917Z,35.80
2018-09-10T13:03:29.603Z,38.30
2018-09-10T13:05:57.324Z,37.00
2018-09-10T13:08:25.017Z,35.80
2018-09-10T13:10:52.750Z,35.30
2018-09-10T13:15:47.999Z,34.80
2018-09-10T13:18:15.680Z,34.30
2018-09-10T13:20:43.348Z,34.10
2018-09-10T13:23:11.056Z,33.50
2018-09-10T13:30:33.885Z,32.90
2018-09-10T13:33:01.528Z,33.60
2018-09-10T13:35:29.244Z,34.30
2018-09-10T13:37:56.970Z,32.80
2018-09-10T13:40:24.613Z,33.10
2018-09-10T13:42:52.294Z,32.00
2018-09-10T13:47:47.579Z,34.80
2018-09-10T13:50:15.264Z,35.20
2018-09-10T13:52:42.989Z,34.50
2018-09-10T13:55:10.674Z,32.60
2018-09-10T13:57:39.223Z,32.20
2018-09-10T14:00:06.974Z,31.10
2018-09-10T14:02:35.279Z,30.70
2018-09-10T14:05:03.044Z,30.40
2018-09-10T14:07:30.743Z,30.90
2018-09-10T14:09:58.475Z,30.80
2018-09-10T14:14:53.713Z,29.60
2018-09-10T14:19:48.945Z,30.60
2018-09-10T14:24:44.200Z,29.20
2018-09-10T14:27:11.975Z,29.90
2018-09-10T14:29:39.676Z,28.40
2018-09-10T14:32:07.343Z,29.60
2018-09-10T14:34:35.029Z,28.50
2018-09-10T14:39:30.419Z,29.50
2018-09-10T14:41:58.140Z,30.40
2018-09-10T14:44:25.857Z,29.30
2018-09-10T14:46:53.614Z,30.30
2018-09-10T14:49:21.365Z,30.10
2018-09-10T14:51:49.084Z,29.70
2018-09-10T14:54:16.784Z,30.00
2018-09-10T15:01:40.903Z,31.40
2018-09-10T15:04:08.656Z,31.90
2018-09-10T15:06:36.355Z,32.70
2018-09-10T15:09:05.553Z,30.90
2018-09-10T15:11:33.254Z,31.20
2018-09-10T15:14:00.980Z,31.00
2018-09-10T15:16:28.680Z,30.30
2018-09-10T15:18:56.531Z,30.20
2018-09-10T15:21:24.083Z,29.60
2018-09-10T15:23:51.797Z,30.00
2018-09-10T15:26:19.510Z,30.40
2018-09-10T15:28:47.175Z,30.60
2018-09-10T15:31:14.849Z,30.20
2018-09-10T15:33:42.542Z,30.80
2018-09-10T15:36:10.252Z,31.20
2018-09-10T15:38:37.936Z,31.60
2018-09-10T15:41:05.621Z,32.40
2018-09-10T15:43:33.315Z,30.80
2018-09-10T15:46:01.012Z,30.30
2018-09-10T15:50:56.310Z,32.40
2018-09-10T15:53:24.103Z,32.60
2018-09-10T15:55:51.750Z,32.00
2018-09-10T16:03:14.711Z,33.40
2018-09-10T16:05:42.442Z,32.30
2018-09-10T16:08:10.156Z,32.70
2018-09-10T16:10:37.873Z,33.50
2018-09-10T16:13:05.591Z,34.50
2018-09-10T16:15:33.272Z,34.90
2018-09-10T16:18:00.956Z,33.90
2018-09-10T16:20:28.719Z,34.50
2018-09-10T16:22:57.033Z,35.00
2018-09-10T16:27:52.231Z,36.40
2018-09-10T16:30:20.088Z,38.10
2018-09-10T16:32:47.752Z,39.50
2018-09-10T16:35:15.481Z,40.20
2018-09-10T16:37:43.171Z,40.20
2018-09-10T16:40:10.935Z,41.30
2018-09-10T16:42:38.653Z,41.60
2018-09-10T16:45:06.467Z,43.20
2018-09-10T16:47:34.265Z,43.60
2018-09-10T16:50:02.061Z,44.50
2018-09-10T16:52:29.761Z,46.00
2018-09-10T16:54:57.617Z,46.60
2018-09-10T16:59:52.802Z,50.30
2018-09-10T17:02:20.533Z,53.50
2018-09-10T17:04:48.291Z,55.70
2018-09-10T17:07:16.009Z,56.70
2018-09-10T17:09:43.702Z,57.00
2018-09-10T17:12:11.504Z,56.60
2018-09-10T17:14:39.254Z,58.10
2018-09-10T17:17:07.941Z,58.70
2018-09-10T17:19:35.940Z,59.10
2018-09-10T17:24:31.561Z,61.30
2018-09-10T17:26:59.403Z,61.80
2018-09-10T17:31:54.701Z,64.80
2018-09-10T17:34:22.472Z,65.70
2018-09-10T17:39:17.815Z,69.40
2018-09-10T17:41:45.550Z,70.50
2018-09-10T17:44:13.281Z,71.40
2018-09-10T17:46:40.999Z,73.70
2018-09-10T17:49:08.708Z,74.80
2018-09-10T17:51:36.416Z,76.70
2018-09-10T17:58:59.372Z,81.40
2018-09-10T18:01:27.076Z,83.60
2018-09-10T18:03:54.836Z,85.60
2018-09-10T18:06:22.506Z,89.00
2018-09-10T18:11:17.827Z,92.30
2018-09-10T18:13:45.632Z,93.70
2018-09-10T18:16:13.356Z,94.80
2018-09-10T18:18:41.062Z,96.20
2018-09-10T18:21:08.762Z,97.00
2018-09-10T18:23:36.473Z,97.80
2018-09-10T18:26:04.184Z,98.80
2018-09-10T18:28:31.916Z,98.80
2018-09-10T18:30:59.648Z,99.50
2018-09-10T18:33:27.346Z,99.90
2018-09-10T18:35:55.116Z,99.90
2018-09-10T18:43:18.082Z,99.90
2018-09-10T18:45:45.846Z,99.90
2018-09-10T18:48:13.564Z,99.90
2018-09-10T18:50:41.356Z,99.90
2018-09-10T18:58:04.407Z,99.90
2018-09-10T19:00:32.131Z,99.90
2018-09-10T19:02:59.872Z,99.90
2018-09-10T19:05:27.620Z,99.90
2018-09-10T19:07:55.349Z,99.90
2018-09-10T19:10:23.082Z,99.90
2018-09-10T19:12:50.791Z,99.90
2018-09-10T19:15:18.552Z,99.90
2018-09-10T19:17:55.031Z,99.90
2018-09-10T19:20:22.688Z,99.90
2018-09-10T19:22:50.461Z,99.90
2018-09-10T19:25:18.127Z,99.90
2018-09-10T19:27:45.956Z,99.90
2018-09-10T19:30:13.664Z,99.90
2018-09-10T19:32:42.402Z,99.90
2018-09-10T19:35:10.128Z,99.90
2018-09-10T19:37:37.905Z,99.90
2018-09-10T19:40:05.650Z,99.90
2018-09-10T19:45:00.934Z,99.90
2018-09-10T19:47:28.663Z,99.90
2018-09-10T19:49:56.352Z,99.90
2018-09-10T19:52:24.043Z,99.90
2018-09-10T19:54:51.839Z,99.90
2018-09-10T19:57:19.544Z,99.90
2018-09-10T19:59:47.264Z,99.90
2018-09-10T20:02:14.946Z,99.90
2018-09-10T20:04:42.776Z,99.90
2018-09-10T20:12:05.662Z,99.90
2018-09-10T20:14:33.352Z,99.90
2018-09-10T20:17:01.070Z,99.90
2018-09-10T20:19:28.848Z,99.90
2018-09-10T20:21:56.607Z,99.90
2018-09-10T20:24:24.311Z,99.90
2018-09-10T20:31:47.198Z,99.90
2018-09-10T20:34:14.914Z,99.90
2018-09-10T20:39:11.763Z,99.90
2018-09-10T20:41:39.571Z,99.90
2018-09-10T20:44:07.366Z,99.90
2018-09-10T20:46:35.454Z,99.90
2018-09-10T20:49:03.200Z,99.90
2018-09-10T20:51:31.228Z,99.90
2018-09-10T20:56:26.522Z,99.90
2018-09-10T20:58:54.683Z,99.90
2018-09-10T21:01:22.689Z,99.90
2018-09-10T21:03:50.832Z,99.90
2018-09-10T21:06:18.885Z,99.90
2018-09-10T21:08:47.065Z,99.90
2018-09-10T21:11:14.835Z,99.90
2018-09-10T21:13:42.536Z,99.90
2018-09-10T21:16:10.296Z,99.90
2018-09-10T21:18:38.057Z,99.90
2018-09-10T21:21:06.101Z,99.90
2018-09-10T21:23:33.849Z,99.90
2018-09-10T21:26:01.738Z,99.90
2018-09-10T21:28:29.426Z,99.90
2018-09-10T21:30:57.151Z,99.90
2018-09-10T21:33:24.874Z,99.90
2018-09-10T21:35:52.553Z,99.90
2018-09-10T21:38:20.264Z,99.90
2018-09-10T21:40:47.914Z,99.90
2018-09-10T21:43:15.590Z,99.90
2018-09-10T21:45:43.258Z,99.90
2018-09-10T21:48:10.989Z,99.90
2018-09-10T21:50:38.657Z,99.90
2018-09-10T21:53:06.455Z,99.90
2018-09-10T21:55:34.168Z,99.90
2018-09-10T21:58:11.313Z,99.90
2018-09-10T22:00:44.416Z,99.90
2018-09-10T22:03:12.109Z,99.90
2018-09-10T22:05:39.830Z,99.90
2018-09-10T22:10:35.281Z,99.90
2018-09-10T22:13:02.948Z,99.90
2018-09-10T22:15:30.761Z,99.90
2018-09-10T22:17:58.624Z,99.90
2018-09-10T22:20:26.307Z,99.90
2018-09-10T22:22:53.985Z,99.90
2018-09-10T22:25:21.754Z,99.90
2018-09-10T22:27:49.437Z,99.90
2018-09-10T22:30:17.138Z,99.90
2018-09-10T22:32:44.844Z,99.90
2018-09-10T22:35:12.523Z,99.90
2018-09-10T22:37:40.163Z,99.90
2018-09-10T22:40:07.854Z,99.90
2018-09-10T22:42:35.540Z,99.90
2018-09-10T22:47:31.098Z,99.90
2018-09-10T22:49:58.794Z,99.90
2018-09-10T22:52:26.403Z,99.90
2018-09-10T22:54:54.129Z,99.90
2018-09-10T22:57:21.854Z,99.90
2018-09-10T23:02:17.125Z,99.90
2018-09-10T23:04:44.800Z,99.90
2018-09-10T23:07:12.489Z,99.90
2018-09-10T23:09:40.192Z,99.90
2018-09-10T23:12:07.884Z,99.90
2018-09-10T23:14:35.556Z,99.90
2018-09-10T23:17:03.302Z,99.90
2018-09-10T23:19:30.934Z,99.90
2018-09-10T23:21:58.666Z,99.90
2018-09-10T23:24:26.324Z,99.90
2018-09-10T23:31:49.124Z,99.90
2018-09-10T23:34:16.760Z,99.90
2018-09-10T23:36:44.439Z,99.90
2018-09-10T23:39:12.130Z,99.90
2018-09-10T23:41:39.847Z,99.90
2018-09-10T23:44:07.516Z,99.90
2018-09-10T23:46:35.318Z,99.90
2018-09-10T23:49:03.018Z,99.90
2018-09-10T23:51:30.718Z,99.90
2018-09-10T23:53:58.352Z,99.90
2018-09-10T23:56:26.031Z,99.90
2018-09-10T23:58:53.788Z,99.90
